Purlear, NC (28665)

3:42 PM EST on December 09, 2016 (GMT -0500)
Phillips Gap | | Change Station

Elev 3064 ft 36.25 °N, 81.41 °W | Updated 10 minutes ago

Clear
Clear
28.7 °F
Feels Like 23 °F
N
5.0
Wind Variable Wind from WNW
Gusts 6.0 mph

Today
High -- | Low -- °F
--% Chance of Precip.
Yesterday
High -- | Low -- °F
Precip. -- in
Pressure 30.29 in
Visibility 10.0 miles
Clouds Clear
Windchill 23 °F
Dew Point 12 °F
Humidity 49%
Rainfall Not available.
Snow Depth Not available.
7:25 AM 5:10 PM
Waxing Gibbous, 77% visible
METAR KGEV 092025Z AUTO 31008KT 10SM CLR M05/M13 A3029 RMK AO2 T10461130
Pressure 30.29 in
Visibility 10.0 miles
Clouds Clear
Windchill 23 °F
Dew Point 12 °F
Humidity 49%
Rainfall Not available.
Snow Depth Not available.
7:25 AM 5:10 PM
Waxing Gibbous, 77% visible
METAR KGEV 092025Z AUTO 31008KT 10SM CLR M05/M13 A3029 RMK AO2 T10461130

10-Day Weather Forecast

Almanac

Astronomy

Dec. 09, 2016 Rise Set
Actual Time
Civil Twilight
Nautical Twilight
Astronomical Twilight
Moon
Length of Visible Light
Length of Day
Tomorrow will be .
, % of the Moon is Illuminated

Today's Extremes

State Highs State Lows

Community

WunderPhotos

Upload Photos

1,956,517 photos uploaded!

WunderBlog® & News

Nearby

Air Quality

  Air Quality AQ Index Pollutant
Not available.

Snow Depth

Station Depth Elevation

Earthquake Activity

City Distance Mag. Time & Date
Minimum magnitude displayed is 2.5.

Coastal Water Temperatures

Place Temperature

Stations

Nearby Weather Stations

Station Location Temp. Windchill Dew Point Humidity Wind Precip. Elev Updated Type
                   

Watches & Warnings

There are currently no watches in effect.